AAL1672 KORD-KMCO
Flight info
| Callsign | AAL1672 |
|---|---|
| Flight time | N/A |
| Altitude | 37000 |
| Route | DENNT DARCY DREGS DUMGE SCOTO SWAPP Q79 THRSR ZJAYX GRNCH5 |
| Aircraft | A321/M-SDE3FGHIRWY/LB1 |
Departure
| Time | N/A |
|---|---|
| Airport | Chicago O'Hare International Airport (KORD) |
Arrival
| Time | 2026-05-04 22:58 |
|---|---|
| Airport | Orlando International Airport (KMCO) |
| Time | Latitude | Longitude | Altitude | Speed | Heading |
|---|---|---|---|---|---|
| 2026-05-04 22:44 | 28.89688 | -81.69038 | 13630 ft | 359 kts | 129° |
| 2026-05-04 22:44 | 28.88167 | -81.66784 | 13197 ft | 357 kts | 129° |
| 2026-05-04 22:44 | 28.86667 | -81.64566 | 12783 ft | 354 kts | 128° |
| 2026-05-04 22:45 | 28.85117 | -81.62276 | 12357 ft | 352 kts | 129° |
| 2026-05-04 22:45 | 28.82229 | -81.58015 | 11871 ft | 331 kts | 129° |
| 2026-05-04 22:45 | 28.80850 | -81.55982 | 11685 ft | 319 kts | 130° |
| 2026-05-04 22:46 | 28.79302 | -81.54218 | 11375 ft | 311 kts | 145° |
| 2026-05-04 22:46 | 28.77485 | -81.52937 | 11138 ft | 305 kts | 155° |
| 2026-05-04 22:46 | 28.75581 | -81.51807 | 10917 ft | 303 kts | 155° |
| 2026-05-04 22:46 | 28.73714 | -81.50685 | 10622 ft | 303 kts | 155° |
| 2026-05-04 22:47 | 28.71801 | -81.49533 | 10278 ft | 301 kts | 155° |
| 2026-05-04 22:47 | 28.69984 | -81.48438 | 9943 ft | 299 kts | 156° |
| 2026-05-04 22:47 | 28.68148 | -81.47337 | 9564 ft | 297 kts | 155° |
| 2026-05-04 22:47 | 28.66325 | -81.46243 | 9225 ft | 295 kts | 155° |
| 2026-05-04 22:48 | 28.64436 | -81.45107 | 8874 ft | 292 kts | 155° |
| 2026-05-04 22:48 | 28.62682 | -81.44051 | 8533 ft | 290 kts | 154° |
| 2026-05-04 22:48 | 28.60889 | -81.43037 | 8206 ft | 284 kts | 163° |
| 2026-05-04 22:48 | 28.59022 | -81.42571 | 8082 ft | 267 kts | 179° |
| 2026-05-04 22:49 | 28.57190 | -81.42437 | 7950 ft | 256 kts | 181° |
| 2026-05-04 22:49 | 28.55441 | -81.42452 | 7841 ft | 247 kts | 183° |
| 2026-05-04 22:49 | 28.53738 | -81.42458 | 7667 ft | 246 kts | 182° |
| 2026-05-04 22:49 | 28.52036 | -81.42459 | 7439 ft | 243 kts | 182° |
| 2026-05-04 22:50 | 28.50331 | -81.42450 | 7218 ft | 242 kts | 182° |
| 2026-05-04 22:50 | 28.48652 | -81.42434 | 6975 ft | 241 kts | 182° |
| 2026-05-04 22:50 | 28.46978 | -81.42420 | 6735 ft | 240 kts | 181° |
| 2026-05-04 22:50 | 28.45313 | -81.42414 | 6507 ft | 239 kts | 181° |
| 2026-05-04 22:51 | 28.43657 | -81.42412 | 6263 ft | 236 kts | 182° |
| 2026-05-04 22:51 | 28.41988 | -81.42412 | 6022 ft | 236 kts | 181° |
| 2026-05-04 22:51 | 28.40364 | -81.42414 | 5791 ft | 237 kts | 181° |
| 2026-05-04 22:51 | 28.38730 | -81.42413 | 5567 ft | 237 kts | 181° |
| 2026-05-04 22:52 | 28.37663 | -81.42410 | 5410 ft | 237 kts | 181° |
| 2026-05-04 22:52 | 28.35840 | -81.42505 | 5117 ft | 233 kts | 189° |
| 2026-05-04 22:52 | 28.34141 | -81.42681 | 4875 ft | 227 kts | 181° |
| 2026-05-04 22:52 | 28.32637 | -81.42644 | 4572 ft | 226 kts | 177° |
| 2026-05-04 22:53 | 28.31071 | -81.42550 | 4235 ft | 225 kts | 175° |
| 2026-05-04 22:53 | 28.29503 | -81.42348 | 3901 ft | 222 kts | 157° |
| 2026-05-04 22:53 | 28.28312 | -81.41400 | 3604 ft | 210 kts | 122° |
| 2026-05-04 22:53 | 28.27844 | -81.39894 | 3255 ft | 204 kts | 90° |
| 2026-05-04 22:54 | 28.27927 | -81.38274 | 2876 ft | 205 kts | 84° |
| 2026-05-04 22:54 | 28.28089 | -81.36684 | 2481 ft | 205 kts | 83° |
| 2026-05-04 22:54 | 28.28258 | -81.35076 | 2100 ft | 204 kts | 82° |
| 2026-05-04 22:54 | 28.28790 | -81.33610 | 2003 ft | 207 kts | 50° |
| 2026-05-04 22:55 | 28.30000 | -81.32697 | 2009 ft | 213 kts | 27° |
| 2026-05-04 22:55 | 28.31327 | -81.32061 | 1999 ft | 203 kts | 30° |
| 2026-05-04 22:55 | 28.32524 | -81.31347 | 2008 ft | 185 kts | 33° |
| 2026-05-04 22:55 | 28.33626 | -81.30611 | 2024 ft | 179 kts | 39° |
| 2026-05-04 22:56 | 28.34561 | -81.29762 | 1693 ft | 170 kts | 43° |
| 2026-05-04 22:56 | 28.35463 | -81.28875 | 1137 ft | 170 kts | 43° |
| 2026-05-04 22:56 | 28.36493 | -81.28304 | 901 ft | 160 kts | 18° |
| 2026-05-04 22:56 | 28.37581 | -81.28191 | 853 ft | 148 kts | 5° |
| 2026-05-04 22:57 | 28.38549 | -81.28217 | 742 ft | 143 kts | 5° |
| 2026-05-04 22:57 | 28.39547 | -81.28222 | 600 ft | 145 kts | 4° |
| 2026-05-04 22:57 | 28.40560 | -81.28219 | 372 ft | 147 kts | 5° |
| 2026-05-04 22:57 | 28.41558 | -81.28240 | 194 ft | 142 kts | 6° |
| 2026-05-04 22:58 | 28.42527 | -81.28234 | 101 ft | 131 kts | 359° |
| 2026-05-04 22:58 | 28.43278 | -81.28246 | 95 ft | 83 kts | 360° |
| 2026-05-04 22:58 | 28.43685 | -81.28251 | 99 ft | 39 kts | 359° |
| 2026-05-04 22:58 | 28.43846 | -81.28309 | 98 ft | 13 kts | 306° |
| 2026-05-04 22:59 | 28.43863 | -81.28337 | 98 ft | 0 kts | 301° |
| 2026-05-04 22:59 | 28.43870 | -81.28361 | 98 ft | 7 kts | 285° |
| 2026-05-04 22:59 | 28.43875 | -81.28451 | 96 ft | 14 kts | 270° |
| 2026-05-04 22:59 | 28.43875 | -81.28555 | 100 ft | 12 kts | 267° |
| 2026-05-04 23:00 | 28.43874 | -81.28681 | 103 ft | 20 kts | 269° |
| 2026-05-04 23:00 | 28.43872 | -81.28861 | 109 ft | 26 kts | 270° |
| 2026-05-04 23:00 | 28.43871 | -81.29077 | 107 ft | 29 kts | 270° |
| 2026-05-04 23:00 | 28.43868 | -81.29239 | 96 ft | 15 kts | 258° |
| 2026-05-04 23:01 | 28.43813 | -81.29262 | 99 ft | 7 kts | 182° |
| 2026-05-04 23:01 | 28.43751 | -81.29263 | 98 ft | 11 kts | 179° |
| 2026-05-04 23:01 | 28.43666 | -81.29262 | 98 ft | 14 kts | 180° |
| 2026-05-04 23:01 | 28.43571 | -81.29271 | 99 ft | 14 kts | 208° |
| 2026-05-04 23:02 | 28.43551 | -81.29396 | 98 ft | 18 kts | 270° |
| 2026-05-04 23:02 | 28.43552 | -81.29534 | 100 ft | 18 kts | 268° |
| 2026-05-04 23:02 | 28.43551 | -81.29675 | 99 ft | 18 kts | 269° |
| 2026-05-04 23:02 | 28.43519 | -81.29799 | 98 ft | 16 kts | 206° |
| 2026-05-04 23:03 | 28.43413 | -81.29805 | 96 ft | 15 kts | 179° |
| 2026-05-04 23:03 | 28.43296 | -81.29801 | 96 ft | 17 kts | 176° |
| 2026-05-04 23:03 | 28.43177 | -81.29804 | 96 ft | 19 kts | 180° |
| 2026-05-04 23:03 | 28.43044 | -81.29801 | 95 ft | 19 kts | 178° |
| 2026-05-04 23:04 | 28.42937 | -81.29801 | 96 ft | 11 kts | 194° |
| 2026-05-04 23:04 | 28.42905 | -81.29863 | 98 ft | 8 kts | 243° |
| 2026-05-04 23:04 | 28.42857 | -81.29883 | 96 ft | 8 kts | 185° |
| 2026-05-04 23:04 | 28.42800 | -81.29883 | 95 ft | 9 kts | 179° |
| 2026-05-04 23:05 | 28.42734 | -81.29882 | 95 ft | 10 kts | 180° |
| 2026-05-04 23:05 | 28.42710 | -81.29882 | 95 ft | 10 kts | 179° |
| 2026-05-04 23:05 | 28.42691 | -81.29882 | 95 ft | 11 kts | 180° |
| 2026-05-04 23:05 | 28.42606 | -81.29883 | 97 ft | 12 kts | 180° |
| 2026-05-04 23:06 | 28.42525 | -81.29891 | 96 ft | 11 kts | 197° |
| 2026-05-04 23:06 | 28.42460 | -81.29943 | 97 ft | 12 kts | 230° |
| 2026-05-04 23:06 | 28.42431 | -81.30035 | 96 ft | 13 kts | 265° |
| 2026-05-04 23:06 | 28.42458 | -81.30138 | 95 ft | 14 kts | 298° |
| 2026-05-04 23:07 | 28.42505 | -81.30235 | 95 ft | 13 kts | 300° |
| 2026-05-04 23:07 | 28.42547 | -81.30318 | 96 ft | 10 kts | 299° |
| 2026-05-04 23:07 | 28.42576 | -81.30367 | 97 ft | 5 kts | 326° |
| 2026-05-04 23:07 | 28.42606 | -81.30358 | 94 ft | 4 kts | 29° |
| 2026-05-04 23:08 | 28.42628 | -81.30343 | 94 ft | 3 kts | 31° |
| 2026-05-04 23:08 | 28.42648 | -81.30329 | 97 ft | 3 kts | 32° |
| 2026-05-04 23:08 | 28.42656 | -81.30324 | 94 ft | 0 kts | 32° |